Time;durP1;ratioP1;P1;durP2;ratioP2;P2;SDS_P1;SDS_P2;PMS_P1;PMS_P2;Temp;Humidity;BMP_temperature;BMP_pressure;BME280_temperature;BME280_humidity;BME280_pressure;Samples;Min_cycle;Max_cycle;Signal;HPM_P1;HPM_P2
2022/10/20 00:01:34;;;;;;;;;;;;;;;21.36;65.39;100422.44;7308560;19;130315;-37
2022/10/20 00:03:59;;;;;;;;;;;;;;;21.25;65.35;100410.22;7309914;19;130971;-40
2022/10/20 00:06:29;;;;;;;;;;;;;;;21.36;65.68;100419.84;7309051;19;129258;-37
2022/10/20 00:08:55;;;;;;;;;;;;;;;21.33;65.58;100423.53;7312824;19;131711;-36
2022/10/20 00:11:21;;;;;;;;;;;;;;;21.36;66.18;100415.44;7318077;19;129276;-39
2022/10/20 00:13:47;;;;;;;;;;;;;;;21.30;65.76;100405.47;7315075;19;130291;-36
2022/10/20 00:16:12;;;;;;;;;;;;;;;21.37;65.56;100411.88;7318047;19;130266;-37
2022/10/20 00:18:38;;;;;;;;;;;;;;;21.32;65.54;100397.50;7315457;19;130376;-40
2022/10/20 00:21:05;;;;;;;;;;;;;;;21.39;65.93;100409.13;7317555;19;130364;-40
2022/10/20 00:23:30;;;;;;;;;;;;;;;21.35;65.68;100416.41;7315165;19;129859;-40
2022/10/20 00:26:03;;;;;;;;;;;;;;;21.37;65.43;100411.06;7315322;19;129255;-38
2022/10/20 00:28:28;;;;;;;;;;;;;;;21.35;65.88;100413.78;7314495;19;129571;-41
2022/10/20 00:30:54;;;;;;;;;;;;;;;21.35;66.11;100403.34;7314582;19;130203;-34
2022/10/20 00:33:19;;;;;;;;;;;;;;;21.37;65.53;100411.88;7315689;19;128978;-40
2022/10/20 00:35:45;;;;;;;;;;;;;;;21.34;65.63;100401.66;7312255;19;129295;-39
2022/10/20 00:38:10;;;;;;;;;;;;;;;21.35;65.99;100398.09;7314288;19;130356;-40
2022/10/20 00:40:35;;;;;;;;;;;;;;;21.37;65.44;100398.78;7315103;19;130055;-40
2022/10/20 00:43:00;;;;;;;;;;;;;;;21.29;65.20;100380.25;7315129;19;129525;-37
2022/10/20 00:45:26;;;;;;;;;;;;;;;21.36;66.10;100394.53;7315100;19;128943;-39
2022/10/20 00:47:53;;;;;;;;;;;;;;;21.36;65.36;100394.53;7313805;19;130235;-38
2022/10/20 00:50:18;;;;;;;;;;;;;;;21.39;66.09;100394.28;7315580;19;130109;-40
2022/10/20 00:52:44;;;;;;;;;;;;;;;21.35;65.94;100387.63;7314495;19;129685;-38
2022/10/20 00:55:10;;;;;;;;;;;;;;;21.32;65.61;100382.63;7314153;19;129206;-38
2022/10/20 00:57:37;;;;;;;;;;;;;;;21.35;65.80;100382.41;7309273;19;129951;-40
2022/10/20 01:00:03;;;;;;;;;;;;;;;21.26;66.06;100366.56;7316012;19;130331;-39
2022/10/20 01:02:28;;;;;;;;;;;;;;;21.30;65.85;100371.47;7315062;19;129625;-40
2022/10/20 01:04:53;;;;;;;;;;;;;;;21.33;65.91;100365.16;7315339;19;129416;-39
2022/10/20 01:07:19;;;;;;;;;;;;;;;21.34;66.01;100366.81;7311870;19;130149;-40
2022/10/20 01:09:48;;;;;;;;;;;;;;;21.35;65.99;100369.31;7311810;19;147247;-37
2022/10/20 01:12:31;;;;;;;;;;;;;;;21.32;65.79;100364.31;7313820;19;129157;-40
2022/10/20 01:15:09;;;;;;;;;;;;;;;21.31;66.12;100361.81;7313106;19;129062;-38
2022/10/20 01:17:53;;;;;;;;;;;;;;;21.31;65.81;100360.03;7313647;19;129958;-39
2022/10/20 01:20:36;;;;;;;;;;;;;;;21.32;65.97;100356.47;7312294;19;129684;-38
2022/10/20 01:23:20;;;;;;;;;;;;;;;21.34;65.65;100351.94;7313932;19;130287;-39
2022/10/20 01:26:04;;;;;;;;;;;;;;;21.32;65.63;100355.66;7312865;19;129287;-40
2022/10/20 01:28:29;;;;;;;;;;;;;;;21.28;65.85;100355.06;7312141;19;130220;-39
2022/10/20 01:30:57;;;;;;;;;;;;;;;21.20;66.36;100326.06;7314358;19;130214;-38
2022/10/20 01:33:25;;;;;;;;;;;;;;;21.32;65.94;100345.19;7313801;19;131068;-38
2022/10/20 01:35:53;;;;;;;;;;;;;;;21.31;65.52;100346.97;7310736;19;129292;-38
2022/10/20 01:38:36;;;;;;;;;;;;;;;21.25;65.83;100330.91;7310499;19;130910;-39
2022/10/20 01:41:07;;;;;;;;;;;;;;;21.22;66.02;100313.66;7314843;19;130404;-40
2022/10/20 01:43:36;;;;;;;;;;;;;;;21.33;66.22;100325.91;7312862;19;129201;-40
2022/10/20 01:46:02;;;;;;;;;;;;;;;21.22;66.04;100303.22;7314613;19;129860;-40
2022/10/20 01:48:31;;;;;;;;;;;;;;;21.29;65.54;100316.63;7309749;19;129745;-38
2022/10/20 01:50:57;;;;;;;;;;;;;;;21.33;65.55;100311.06;7313245;19;129362;-40
2022/10/20 01:53:22;;;;;;;;;;;;;;;21.30;65.46;100311.31;7313323;19;129524;-37
2022/10/20 01:55:51;;;;;;;;;;;;;;;21.32;66.15;100305.97;7310816;19;129110;-40
2022/10/20 01:58:17;;;;;;;;;;;;;;;21.31;65.60;100302.50;7311300;19;130122;-38
2022/10/20 02:00:43;;;;;;;;;;;;;;;21.30;66.15;100297.41;7312333;19;130355;-40
2022/10/20 02:03:29;;;;;;;;;;;;;;;21.32;66.09;100288.47;7312965;19;129966;-37
2022/10/20 02:06:03;;;;;;;;;;;;;;;21.32;65.62;100292.88;7312323;19;129971;-40
2022/10/20 02:08:34;;;;;;;;;;;;;;;21.28;65.61;100284.44;7311884;19;130978;-37
2022/10/20 02:11:01;;;;;;;;;;;;;;;21.30;65.46;100285.16;7312161;19;130490;-40
2022/10/20 02:13:28;;;;;;;;;;;;;;;21.31;66.00;100271.13;7313250;19;129044;-38
2022/10/20 02:15:56;;;;;;;;;;;;;;;21.21;66.06;100253.66;7310948;19;128990;-38
2022/10/20 02:18:24;;;;;;;;;;;;;;;21.29;66.35;100259.94;7310369;19;129519;-39
2022/10/20 02:20:52;;;;;;;;;;;;;;;21.28;66.31;100254.84;7311014;19;130120;-38
2022/10/20 02:23:18;;;;;;;;;;;;;;;21.29;65.96;100246.03;7312558;19;129096;-38
2022/10/20 02:25:45;;;;;;;;;;;;;;;21.29;65.95;100243.41;7313845;19;129131;-40
2022/10/20 02:28:12;;;;;;;;;;;;;;;21.31;65.59;100231.03;7310778;19;129693;-38
2022/10/20 02:30:38;;;;;;;;;;;;;;;21.31;65.64;100233.66;7311676;19;130339;-38
2022/10/20 02:33:04;;;;;;;;;;;;;;;21.25;65.40;100215.84;7311076;19;131502;-38
2022/10/20 02:35:31;;;;;;;;;;;;;;;21.31;65.90;100224.03;7312074;19;128925;-38
2022/10/20 02:37:56;;;;;;;;;;;;;;;21.31;65.46;100212.75;7308894;19;131140;-39
2022/10/20 02:40:22;;;;;;;;;;;;;;;21.32;66.14;100217.84;7308863;19;130888;-39
2022/10/20 02:42:47;;;;;;;;;;;;;;;21.30;66.35;100214.53;7311493;19;128910;-39
2022/10/20 02:45:12;;;;;;;;;;;;;;;21.26;66.18;100220.97;7311459;19;129321;-40
2022/10/20 02:47:38;;;;;;;;;;;;;;;21.27;65.55;100212.16;7309928;19;130214;-40
2022/10/20 02:50:04;;;;;;;;;;;;;;;21.25;65.93;100208.84;7308842;19;130281;-39
2022/10/20 02:52:29;;;;;;;;;;;;;;;21.28;66.04;100197.31;7310664;19;129603;-40
2022/10/20 02:54:54;;;;;;;;;;;;;;;21.31;65.90;100203.13;7310988;19;129461;-38
2022/10/20 02:57:20;;;;;;;;;;;;;;;21.29;65.57;100205.03;7308691;19;130035;-39
2022/10/20 02:59:45;;;;;;;;;;;;;;;21.25;65.65;100198.38;7311387;19;130406;-39
2022/10/20 03:02:10;;;;;;;;;;;;;;;21.21;66.31;100175.19;7310657;19;129494;-39
2022/10/20 03:04:35;;;;;;;;;;;;;;;21.31;66.16;100197.03;7311539;19;129236;-39
2022/10/20 03:07:01;;;;;;;;;;;;;;;21.29;65.74;100193.72;7310272;19;130372;-37
2022/10/20 03:09:26;;;;;;;;;;;;;;;21.29;65.41;100197.16;7311045;19;131170;-38
2022/10/20 03:11:51;;;;;;;;;;;;;;;21.30;66.29;100196.25;7310163;19;129485;-38
2022/10/20 03:14:16;;;;;;;;;;;;;;;21.32;65.63;100191.69;7311167;19;129124;-40
2022/10/20 03:16:41;;;;;;;;;;;;;;;21.28;65.86;100190.28;7312044;19;130581;-39
2022/10/20 03:19:07;;;;;;;;;;;;;;;21.30;66.11;100183.16;7310604;19;130368;-38
2022/10/20 03:21:32;;;;;;;;;;;;;;;21.28;65.80;100187.69;7310230;19;129194;-39
2022/10/20 03:23:57;;;;;;;;;;;;;;;21.27;65.95;100186.00;7309929;19;129087;-39
2022/10/20 03:26:22;;;;;;;;;;;;;;;21.28;65.68;100182.44;7310818;19;129130;-39
2022/10/20 03:28:48;;;;;;;;;;;;;;;21.26;65.96;100178.28;7308831;19;129279;-38
2022/10/20 03:31:13;;;;;;;;;;;;;;;21.27;66.34;100182.56;7308314;19;129112;-39
2022/10/20 03:33:38;;;;;;;;;;;;;;;21.26;65.72;100179.13;7309345;19;129945;-39
2022/10/20 03:36:04;;;;;;;;;;;;;;;21.27;65.77;100170.31;7308448;19;130112;-37
2022/10/20 03:38:29;;;;;;;;;;;;;;;21.27;65.72;100175.53;7307089;19;130571;-39
2022/10/20 03:40:54;;;;;;;;;;;;;;;21.27;66.17;100177.34;7309849;19;129363;-39
2022/10/20 03:43:20;;;;;;;;;;;;;;;21.28;66.32;100171.97;7314473;19;129452;-37
2022/10/20 03:45:45;;;;;;;;;;;;;;;21.15;66.03;100155.63;7315954;19;129485;-38
2022/10/20 03:48:11;;;;;;;;;;;;;;;21.24;66.29;100170.56;7312666;19;131134;-39
2022/10/20 03:50:42;;;;;;;;;;;;;;;21.27;65.90;100174.72;7314932;19;128871;-38
2022/10/20 03:53:11;;;;;;;;;;;;;;;21.24;66.08;100180.19;7312777;19;130277;-39
2022/10/20 03:55:36;;;;;;;;;;;;;;;21.23;66.12;100171.53;7312650;19;129006;-37
2022/10/20 03:58:01;;;;;;;;;;;;;;;21.27;65.61;100180.75;7315226;19;131796;-40
2022/10/20 04:00:26;;;;;;;;;;;;;;;21.27;65.47;100186.00;7315884;19;128905;-40
2022/10/20 04:02:52;;;;;;;;;;;;;;;21.29;65.41;100178.88;7316601;19;129073;-38
2022/10/20 04:05:19;;;;;;;;;;;;;;;21.29;66.07;100173.63;7317316;19;130186;-39
2022/10/20 04:07:44;;;;;;;;;;;;;;;21.20;65.87;100163.94;7315606;19;130733;-38
2022/10/20 04:10:10;;;;;;;;;;;;;;;21.27;65.67;100170.31;7317187;19;129609;-40
2022/10/20 04:12:35;;;;;;;;;;;;;;;21.26;65.51;100163.44;7313042;19;133637;-39
2022/10/20 04:15:00;;;;;;;;;;;;;;;21.25;66.04;100156.53;7313205;19;129128;-37
2022/10/20 04:17:26;;;;;;;;;;;;;;;21.29;65.78;100157.94;7312377;19;131178;-38
2022/10/20 04:19:51;;;;;;;;;;;;;;;21.29;65.55;100151.88;7316805;19;129255;-39
2022/10/20 04:22:16;;;;;;;;;;;;;;;21.28;66.28;100151.06;7316079;19;129247;-39
2022/10/20 04:24:41;;;;;;;;;;;;;;;21.28;65.46;100143.22;7317244;19;129550;-38
2022/10/20 04:27:06;;;;;;;;;;;;;;;21.29;66.15;100146.66;7314966;19;129851;-40
2022/10/20 04:29:32;;;;;;;;;;;;;;;21.26;66.09;100141.66;7313127;19;130938;-39
2022/10/20 04:31:57;;;;;;;;;;;;;;;21.24;65.71;100138.34;7315536;19;129305;-40
2022/10/20 04:34:22;;;;;;;;;;;;;;;21.28;66.12;100143.22;7315353;19;130101;-39
2022/10/20 04:36:48;;;;;;;;;;;;;;;21.25;66.16;100138.25;7315328;19;130342;-38
2022/10/20 04:39:13;;;;;;;;;;;;;;;21.14;66.26;100117.34;7315147;19;130631;-37
2022/10/20 04:41:38;;;;;;;;;;;;;;;21.26;65.32;100132.03;7315799;19;129834;-39
2022/10/20 04:44:04;;;;;;;;;;;;;;;21.26;66.10;100126.81;7316273;19;130745;-38
2022/10/20 04:46:29;;;;;;;;;;;;;;;21.29;65.80;100131.78;7315633;19;130858;-38
2022/10/20 04:48:54;;;;;;;;;;;;;;;21.32;65.85;100115.84;7314735;19;129398;-40
2022/10/20 04:51:19;;;;;;;;;;;;;;;21.27;66.14;100112.78;7314128;19;129004;-37
2022/10/20 04:53:45;;;;;;;;;;;;;;;21.25;65.68;100109.47;7313978;19;129038;-39
2022/10/20 04:56:18;;;;;;;;;;;;;;;21.29;65.48;100113.47;7312731;19;130088;-39
2022/10/20 04:58:50;;;;;;;;;;;;;;;21.28;65.73;100117.06;7314301;19;129328;-40
2022/10/20 05:01:16;;;;;;;;;;;;;;;21.30;65.35;100106.47;7313975;19;129167;-39
2022/10/20 05:03:42;;;;;;;;;;;;;;;21.17;65.57;100080.47;7315096;19;129375;-38
2022/10/20 05:06:10;;;;;;;;;;;;;;;21.24;65.82;100092.09;7314464;19;130889;-38
2022/10/20 05:08:35;;;;;;;;;;;;;;;21.16;65.72;100073.59;7311491;19;128883;-40
2022/10/20 05:11:01;;;;;;;;;;;;;;;21.21;65.93;100086.28;7313741;19;129183;-40
2022/10/20 05:13:26;;;;;;;;;;;;;;;21.26;65.97;100090.22;7311315;19;129320;-37
2022/10/20 05:15:51;;;;;;;;;;;;;;;21.26;65.88;100097.22;7310643;19;129322;-39
2022/10/20 05:18:17;;;;;;;;;;;;;;;21.15;65.66;100077.19;7311729;19;129081;-40
2022/10/20 05:20:42;;;;;;;;;;;;;;;21.25;66.05;100087.72;7315154;19;129118;-40
2022/10/20 05:23:07;;;;;;;;;;;;;;;21.25;65.74;100083.31;7312698;19;129341;-38
2022/10/20 05:25:35;;;;;;;;;;;;;;;21.22;65.56;100078.31;7312317;19;130501;-38
2022/10/20 05:28:00;;;;;;;;;;;;;;;21.26;66.07;100090.22;7309696;19;129333;-38
2022/10/20 05:30:25;;;;;;;;;;;;;;;21.26;65.37;100084.97;7313882;19;129511;-39
2022/10/20 05:32:50;;;;;;;;;;;;;;;21.24;65.49;100076.41;7313050;19;129677;-38
2022/10/20 05:35:15;;;;;;;;;;;;;;;21.22;66.26;100082.75;7310647;19;130479;-38
2022/10/20 05:37:41;;;;;;;;;;;;;;;21.25;66.04;100078.09;7309697;19;131082;-39
2022/10/20 05:40:07;;;;;;;;;;;;;;;21.27;65.51;100084.00;7312253;19;129093;-40
2022/10/20 05:42:32;;;;;;;;;;;;;;;21.22;66.03;100080.13;7313304;19;130701;-37
2022/10/20 05:44:57;;;;;;;;;;;;;;;21.23;66.21;100077.38;7313071;19;130829;-39
2022/10/20 05:47:22;;;;;;;;;;;;;;;21.26;65.34;100079.75;7309786;19;130790;-38
2022/10/20 05:49:48;;;;;;;;;;;;;;;21.23;65.92;100069.53;7312101;19;129860;-39
2022/10/20 05:52:13;;;;;;;;;;;;;;;21.23;66.25;100066.09;7312294;19;129120;-37
2022/10/20 05:54:38;;;;;;;;;;;;;;;21.20;66.13;100068.97;7313298;19;130094;-40
2022/10/20 05:57:03;;;;;;;;;;;;;;;21.25;65.53;100070.25;7310086;19;129666;-39
2022/10/20 05:59:29;;;;;;;;;;;;;;;21.18;66.05;100063.00;7311212;19;129037;-39
2022/10/20 06:01:54;;;;;;;;;;;;;;;21.28;65.66;100082.22;7313666;19;130214;-39
2022/10/20 06:04:23;;;;;;;;;;;;;;;21.25;66.05;100078.09;7313524;19;130415;-37
2022/10/20 06:06:49;;;;;;;;;;;;;;;21.27;65.73;100084.00;7313000;19;129337;-38
2022/10/20 06:09:14;;;;;;;;;;;;;;;21.27;66.20;100076.16;7313805;19;129452;-39
2022/10/20 06:11:39;;;;;;;;;;;;;;;21.26;66.00;100089.38;7312180;19;129396;-38
2022/10/20 06:14:05;;;;;;;;;;;;;;;21.25;66.18;100085.94;7311507;19;129468;-38
2022/10/20 06:16:31;;;;;;;;;;;;;;;21.27;65.85;100086.63;7309245;19;129324;-39
2022/10/20 06:18:57;;;;;;;;;;;;;;;21.24;66.18;100089.50;7311818;19;129746;-39
2022/10/20 06:21:24;;;;;;;;;;;;;;;21.18;65.52;100079.53;7309774;19;130237;-35
2022/10/20 06:23:49;;;;;;;;;;;;;;;21.26;66.00;100090.22;7313025;19;130493;-37
2022/10/20 06:26:25;;;;;;;;;;;;;;;21.24;65.48;100086.88;7313752;19;128824;-36
2022/10/20 06:28:52;;;;;;;;;;;;;;;21.22;65.98;100082.75;7312921;19;129323;-37
2022/10/20 06:31:18;;;;;;;;;;;;;;;21.23;66.07;100090.47;7312173;19;129433;-41
2022/10/20 06:33:44;;;;;;;;;;;;;;;21.27;66.07;100089.22;7312504;19;130698;-40
2022/10/20 06:36:10;;;;;;;;;;;;;;;21.22;66.06;100088.78;7311011;19;129543;-37
2022/10/20 06:38:35;;;;;;;;;;;;;;;21.22;66.23;100086.16;7308046;19;129495;-40
2022/10/20 06:41:02;;;;;;;;;;;;;;;21.22;65.43;100091.41;7309383;19;130121;-39
2022/10/20 06:43:27;;;;;;;;;;;;;;;21.24;65.97;100076.41;7312170;19;129791;-40
2022/10/20 06:45:56;;;;;;;;;;;;;;;21.23;65.91;100095.69;7314746;19;129364;-39
2022/10/20 06:48:21;;;;;;;;;;;;;;;21.20;65.89;100088.09;7309878;19;129713;-39
2022/10/20 06:50:47;;;;;;;;;;;;;;;21.12;65.97;100082.63;7310894;19;130326;-39
2022/10/20 06:53:12;;;;;;;;;;;;;;;21.21;65.60;100099.38;7312394;19;130384;-40
2022/10/20 06:55:37;;;;;;;;;;;;;;;21.21;66.40;100101.97;7310832;19;129447;-38
2022/10/20 06:58:02;;;;;;;;;;;;;;;21.13;66.30;100089.53;7310392;19;129185;-37
2022/10/20 07:00:27;;;;;;;;;;;;;;;21.25;66.01;100109.47;7308096;19;130370;-40
2022/10/20 07:02:53;;;;;;;;;;;;;;;21.22;65.84;100106.28;7309870;19;131101;-38
2022/10/20 07:05:18;;;;;;;;;;;;;;;21.21;66.29;100097.59;7311785;19;129162;-39
2022/10/20 07:07:44;;;;;;;;;;;;;;;21.23;66.19;100103.53;7311917;19;129391;-37
2022/10/20 07:10:09;;;;;;;;;;;;;;;21.23;65.54;100106.16;7309776;19;129529;-39
2022/10/20 07:12:34;;;;;;;;;;;;;;;21.23;66.25;100107.94;7310757;19;129944;-39
2022/10/20 07:14:59;;;;;;;;;;;;;;;21.21;66.11;100101.97;7311530;19;129593;-38
2022/10/20 07:17:24;;;;;;;;;;;;;;;21.22;65.59;100098.44;7309846;19;131476;-40
2022/10/20 07:19:50;;;;;;;;;;;;;;;21.22;65.79;100104.47;7309693;19;130250;-36
2022/10/20 07:22:15;;;;;;;;;;;;;;;21.24;65.74;100105.19;7308874;19;130404;-40
2022/10/20 07:24:40;;;;;;;;;;;;;;;21.22;65.83;100104.47;7312094;19;129514;-39
2022/10/20 07:27:05;;;;;;;;;;;;;;;21.18;65.96;100110.91;7310394;19;129345;-38
2022/10/20 07:29:30;;;;;;;;;;;;;;;21.22;65.97;100096.63;7311758;19;130176;-40
2022/10/20 07:31:56;;;;;;;;;;;;;;;21.22;65.76;100099.25;7310352;19;130400;-40
2022/10/20 07:34:22;;;;;;;;;;;;;;;21.20;66.08;100101.19;7311670;19;129379;-40
2022/10/20 07:36:48;;;;;;;;;;;;;;;21.18;65.97;100103.06;7308475;19;129097;-40
2022/10/20 07:39:13;;;;;;;;;;;;;;;21.19;65.62;100099.50;7311684;19;129610;-40
2022/10/20 07:41:38;;;;;;;;;;;;;;;21.18;66.06;100100.47;7306754;19;130336;-38
2022/10/20 07:44:04;;;;;;;;;;;;;;;21.20;66.12;100085.47;7309276;19;129282;-37
2022/10/20 07:46:30;;;;;;;;;;;;;;;21.19;65.40;100083.81;7311049;19;129736;-40
2022/10/20 07:48:55;;;;;;;;;;;;;;;21.19;65.53;100096.88;7310603;19;129367;-40
2022/10/20 07:51:20;;;;;;;;;;;;;;;21.19;66.25;100099.50;7309932;19;130541;-39
2022/10/20 07:53:47;;;;;;;;;;;;;;;21.20;65.76;100090.72;7309689;19;129149;-39
2022/10/20 07:56:12;;;;;;;;;;;;;;;21.20;66.17;100090.72;7307895;19;130575;-40
2022/10/20 07:58:37;;;;;;;;;;;;;;;21.21;66.27;100081.91;7307684;19;130287;-38
2022/10/20 08:01:03;;;;;;;;;;;;;;;21.14;66.30;100065.03;7306801;19;130874;-38
2022/10/20 08:03:28;;;;;;;;;;;;;;;21.20;66.23;100080.25;7307076;19;129501;-39
2022/10/20 08:05:53;;;;;;;;;;;;;;;21.21;66.25;100084.50;7309380;19;131259;-40
2022/10/20 08:08:19;;;;;;;;;;;;;;;21.12;65.82;100061.72;7307031;19;131080;-36
2022/10/20 08:10:44;;;;;;;;;;;;;;;21.20;65.99;100074.19;7308995;19;130651;-39
2022/10/20 08:13:09;;;;;;;;;;;;;;;21.10;65.84;100058.44;7308320;19;129186;-39
2022/10/20 08:15:34;;;;;;;;;;;;;;;21.18;66.09;100071.69;7308448;19;129616;-37
2022/10/20 08:17:59;;;;;;;;;;;;;;;21.19;65.43;100067.31;7308594;19;130613;-39
2022/10/20 08:20:25;;;;;;;;;;;;;;;21.20;65.88;100059.34;7307177;19;130992;-37
2022/10/20 08:22:50;;;;;;;;;;;;;;;21.17;65.68;100059.56;7307801;19;129102;-39
2022/10/20 08:25:15;;;;;;;;;;;;;;;21.17;65.83;100059.56;7309655;19;129926;-38
2022/10/20 08:27:40;;;;;;;;;;;;;;;21.14;65.96;100059.81;7308059;19;130025;-39
2022/10/20 08:30:06;;;;;;;;;;;;;;;21.18;66.23;100056.00;7311822;19;130465;-39
2022/10/20 08:32:31;;;;;;;;;;;;;;;21.18;66.21;100050.78;7315794;19;129328;-37
2022/10/20 08:34:56;;;;;;;;;;;;;;;21.17;65.79;100051.72;7315861;19;129387;-39
2022/10/20 08:37:22;;;;;;;;;;;;;;;21.18;66.21;100042.09;7315888;19;130228;-39
2022/10/20 08:39:47;;;;;;;;;;;;;;;21.08;66.36;100017.66;7315050;19;130302;-41
2022/10/20 08:42:12;;;;;;;;;;;;;;;21.19;65.96;100047.19;7316271;19;129406;-39
2022/10/20 08:44:39;;;;;;;;;;;;;;;21.16;65.91;100044.84;7311607;19;129561;-38
2022/10/20 08:47:13;;;;;;;;;;;;;;;21.06;66.24;100024.78;7312428;19;130300;-41
2022/10/20 08:49:38;;;;;;;;;;;;;;;21.18;66.15;100037.72;7315020;19;129543;-40
2022/10/20 08:52:10;;;;;;;;;;;;;;;21.15;66.27;100040.59;7314484;19;129715;-40
2022/10/20 08:54:35;;;;;;;;;;;;;;;21.14;66.24;100025.81;7315890;19;129343;-40
2022/10/20 08:57:00;;;;;;;;;;;;;;;21.17;66.03;100030.81;7312118;19;130186;-38
2022/10/20 08:59:28;;;;;;;;;;;;;;;21.20;65.55;100014.88;7316164;19;129816;-38
2022/10/20 09:01:53;;;;;;;;;;;;;;;21.15;65.76;100024.06;7313431;19;129501;-39
2022/10/20 09:04:21;;;;;;;;;;;;;;;21.13;65.98;100016.34;7312918;19;129644;-37
2022/10/20 09:06:49;;;;;;;;;;;;;;;21.13;65.67;100016.34;7310309;19;130349;-38
2022/10/20 09:09:16;;;;;;;;;;;;;;;21.16;66.03;100000.41;7314065;19;130995;-40
2022/10/20 09:11:43;;;;;;;;;;;;;;;21.18;65.62;100002.88;7314275;19;128974;-39
2022/10/20 09:14:09;;;;;;;;;;;;;;;21.12;66.20;99998.97;7315466;19;129374;-41
2022/10/20 09:16:38;;;;;;;;;;;;;;;21.15;66.03;100005.75;7312959;19;130305;-38
2022/10/20 09:19:05;;;;;;;;;;;;;;;21.15;66.44;100011.81;7314378;19;131208;-39
2022/10/20 09:21:32;;;;;;;;;;;;;;;21.18;65.46;100008.94;7312882;19;129004;-38
2022/10/20 09:24:02;;;;;;;;;;;;;;;21.17;66.06;100011.69;7312931;19;128711;-40
2022/10/20 09:26:30;;;;;;;;;;;;;;;21.07;66.05;99990.72;7311842;19;129709;-38
2022/10/20 09:29:03;;;;;;;;;;;;;;;21.15;66.25;100003.97;7312785;19;131174;-40
2022/10/20 09:31:39;;;;;;;;;;;;;;;21.17;65.97;100001.22;7313219;19;128994;-39
2022/10/20 09:34:24;;;;;;;;;;;;;;;21.11;65.99;100005.16;7314209;19;129249;-39
2022/10/20 09:36:51;;;;;;;;;;;;;;;21.14;66.05;99999.69;7312162;19;130241;-37
2022/10/20 09:39:20;;;;;;;;;;;;;;;21.15;65.69;99998.75;7313382;19;130293;-38
2022/10/20 09:41:47;;;;;;;;;;;;;;;21.16;66.01;100010.84;7313000;19;129078;-41
2022/10/20 09:44:24;;;;;;;;;;;;;;;21.18;65.96;100005.50;7313054;19;129130;-39
2022/10/20 09:46:51;;;;;;;;;;;;;;;21.15;65.87;99998.75;7311394;19;130155;-37
2022/10/20 09:49:26;;;;;;;;;;;;;;;21.18;65.43;100006.34;7312703;19;130399;-38
2022/10/20 09:51:52;;;;;;;;;;;;;;;21.13;66.24;99998.03;7312426;19;129214;-37
2022/10/20 09:54:18;;;;;;;;;;;;;;;21.15;66.28;99988.28;7314209;19;129279;-38
2022/10/20 09:56:45;;;;;;;;;;;;;;;21.04;65.63;99977.06;7311525;19;130508;-38
2022/10/20 09:59:29;;;;;;;;;;;;;;;21.05;66.29;99979.53;7313816;19;130377;-39
2022/10/20 10:01:59;;;;;;;;;;;;;;;21.08;66.14;99975.84;7312491;19;128942;-39
2022/10/20 10:04:32;;;;;;;;;;;;;;;21.14;65.94;99986.63;7314017;19;129338;-39
2022/10/20 10:06:57;;;;;;;;;;;;;;;21.06;66.37;99981.19;7309639;19;131820;-37
2022/10/20 10:09:31;;;;;;;;;;;;;;;21.12;66.16;99991.13;7309648;19;129694;-37
2022/10/20 10:12:04;;;;;;;;;;;;;;;21.14;66.27;99996.25;7312935;19;129053;-38
2022/10/20 10:14:32;;;;;;;;;;;;;;;21.14;65.74;99986.63;7313296;19;130066;-39
2022/10/20 10:16:57;;;;;;;;;;;;;;;21.15;66.40;99977.84;7309205;19;130157;-39
2022/10/20 10:19:25;;;;;;;;;;;;;;;21.14;65.87;99975.34;7310760;19;130595;-39
2022/10/20 10:21:53;;;;;;;;;;;;;;;21.15;66.02;99987.44;7311166;19;129323;-36
2022/10/20 10:24:29;;;;;;;;;;;;;;;21.13;66.01;99979.75;7313485;19;129513;-38
2022/10/20 10:26:55;;;;;;;;;;;;;;;21.15;66.02;99975.22;7310405;19;131569;-38
2022/10/20 10:29:23;;;;;;;;;;;;;;;21.15;66.16;99983.06;7309412;19;131040;-39
2022/10/20 10:31:59;;;;;;;;;;;;;;;21.16;65.74;99969.03;7311549;19;129034;-36
2022/10/20 10:34:33;;;;;;;;;;;;;;;21.12;66.43;99972.03;7313021;19;128916;-38
2022/10/20 10:36:59;;;;;;;;;;;;;;;21.13;66.04;99964.06;7311103;19;129989;-40
2022/10/20 10:39:24;;;;;;;;;;;;;;;21.10;65.86;99961.69;7309742;19;130049;-40
2022/10/20 10:42:02;;;;;;;;;;;;;;;21.13;65.86;99963.22;7310120;19;129562;-38
2022/10/20 10:44:36;;;;;;;;;;;;;;;21.12;66.02;99957.16;7310343;19;129686;-39
2022/10/20 10:47:20;;;;;;;;;;;;;;;21.09;66.07;99951.38;7309473;19;130556;-40
2022/10/20 10:49:45;;;;;;;;;;;;;;;21.08;66.36;99955.75;7309358;19;129671;-38
2022/10/20 10:52:17;;;;;;;;;;;;;;;21.15;65.67;99958.69;7306421;19;129131;-40
2022/10/20 10:54:47;;;;;;;;;;;;;;;21.14;65.77;99954.44;7312535;19;129406;-40
2022/10/20 10:57:18;;;;;;;;;;;;;;;21.13;65.77;99944.91;7309092;19;131004;-39
2022/10/20 10:59:47;;;;;;;;;;;;;;;21.13;65.67;99937.06;7312861;19;130680;-39
2022/10/20 11:02:31;;;;;;;;;;;;;;;21.00;66.16;99916.38;7311965;19;129582;-39
2022/10/20 11:04:56;;;;;;;;;;;;;;;21.12;65.90;99917.94;7310199;19;129830;-39
2022/10/20 11:07:27;;;;;;;;;;;;;;;21.10;66.33;99921.66;7307848;19;130403;-37
2022/10/20 11:09:58;;;;;;;;;;;;;;;21.08;65.79;99918.31;7311131;19;129662;-40
2022/10/20 11:12:32;;;;;;;;;;;;;;;21.11;65.46;99912.84;7310042;19;129365;-39
2022/10/20 11:15:16;;;;;;;;;;;;;;;21.14;65.95;99913.41;7310762;19;128961;-37
2022/10/20 11:17:52;;;;;;;;;;;;;;;21.11;65.82;99921.50;7308773;19;130450;-39
2022/10/20 11:20:26;;;;;;;;;;;;;;;21.11;66.35;99903.22;7310232;19;130358;-39
2022/10/20 11:23:00;;;;;;;;;;;;;;;21.10;65.80;99909.41;7311083;19;129699;-40
2022/10/20 11:25:32;;;;;;;;;;;;;;;21.08;66.51;99903.47;7309361;19;129332;-38
2022/10/20 11:27:58;;;;;;;;;;;;;;;21.09;65.72;99905.13;7307585;19;130094;-38
2022/10/20 11:30:26;;;;;;;;;;;;;;;21.09;66.39;99894.66;7308339;19;131114;-38
2022/10/20 11:32:51;;;;;;;;;;;;;;;21.07;65.70;99894.00;7308315;19;129501;-38
2022/10/20 11:35:19;;;;;;;;;;;;;;;21.04;65.67;99880.34;7311541;19;129719;-38
2022/10/20 11:37:55;;;;;;;;;;;;;;;21.11;66.17;99891.91;7308824;19;130189;-38
2022/10/20 11:40:27;;;;;;;;;;;;;;;21.06;65.97;99889.69;7310341;19;129146;-39
2022/10/20 11:43:16;;;;;;;;;;;;;;;21.06;66.47;99889.69;7309034;19;129537;-38
2022/10/20 11:45:48;;;;;;;;;;;;;;;21.05;66.21;99882.00;7310063;19;129812;-40
2022/10/20 11:48:32;;;;;;;;;;;;;;;21.06;65.66;99881.84;7302716;19;129468;-39
2022/10/20 11:51:01;;;;;;;;;;;;;;;21.10;66.35;99888.50;7310291;19;131017;-39
2022/10/20 11:53:31;;;;;;;;;;;;;;;20.97;66.49;99868.72;7309041;19;128995;-40
2022/10/20 11:55:56;;;;;;;;;;;;;;;21.09;66.10;99888.63;7309412;19;129134;-38
2022/10/20 11:58:22;;;;;;;;;;;;;;;21.12;65.82;99873.47;7308929;19;128934;-40
2022/10/20 12:00:59;;;;;;;;;;;;;;;21.10;66.28;99872.81;7308378;19;130386;-38
2022/10/20 12:03:36;;;;;;;;;;;;;;;21.08;66.08;99882.56;7312489;19;129057;-38
2022/10/20 12:06:22;;;;;;;;;;;;;;;21.06;65.72;99858.34;7315508;19;130634;-37
2022/10/20 12:08:50;;;;;;;;;;;;;;;21.08;66.44;99866.88;7311615;19;129843;-37
2022/10/20 12:11:15;;;;;;;;;;;;;;;21.05;66.04;99861.91;7315407;19;131038;-40
2022/10/20 12:13:56;;;;;;;;;;;;;;;21.07;66.12;99875.69;7315997;19;129098;-41
2022/10/20 12:16:40;;;;;;;;;;;;;;;21.08;65.95;99866.88;7314240;19;129454;-35
2022/10/20 12:19:14;;;;;;;;;;;;;;;21.07;65.77;99859.16;7315530;19;130097;-39
2022/10/20 12:22:15;;;;;;;;;;;;;;;21.05;66.26;99843.63;7315461;19;130249;-37
2022/10/20 12:24:52;;;;;;;;;;;;;;;20.96;66.31;99831.28;7311597;19;129656;-39
2022/10/20 12:27:19;;;;;;;;;;;;;;;21.06;66.25;99858.34;7311824;19;129020;-37
2022/10/20 12:29:46;;;;;;;;;;;;;;;21.06;66.19;99860.94;7313918;19;130043;-38
2022/10/20 12:32:20;;;;;;;;;;;;;;;21.09;66.26;99845.00;7315133;19;129546;-40